Terminal Aerodrome Forecast
Issued by NWS

Home | Current Version | Previous Version | Text Only | Print | Product List | Glossary On
Versions: 1 2 3 4 5 6 7 8 9 10 11 12 13 14 15 16
000
FTUS44 KMAF 282136 AAA
TAFCNM
TAF AMD
KCNM 282136Z 2822/2918 15009G19KT P6SM SCT090 SCT250
     FM290200 09006KT P6SM SCT200
     FM291200 36006KT P6SM SCT250
     FM291600 11009G19KT P6SM SCT040 SCT250=

USA.gov is the U.S. government's official web portal to all federal, state and local government web resources and services.